Howardstown, Kentucky
Current Conditions -  °F | °C
As of 7:35 AM on Monday 24 Nov 2014 (Local Time) from K6I2 Reporting Station
Few Clouds Few Clouds  
Wind Chill: 59°   Ceiling: Unl
Heat Index: 59°   Visibility: 10mi
Dew Point: 50°   Wind: 28mph
Humidity: 72%   Direction: 210°SSW
Pressure: 29.44"   Gusts: 35mph
Location:  37.6609°N, 85.573°W
Report Text: K6I2 241235Z AUTO 21024G30KT 10SM FEW030 FEW080 15/10 A2944 RMK AO2
Loading
Personal Weather Stations






























Interactive Weather Map New forecast layout! Learn more

10-Day Weather Forecast

Advertisements
Track Severe Weather on mobile